Time;durP1;ratioP1;P1;durP2;ratioP2;P2;SDS_P1;SDS_P2;PMS_P1;PMS_P2;Temp;Humidity;BMP_temperature;BMP_pressure;BME280_temperature;BME280_humidity;BME280_pressure;Samples;Min_cycle;Max_cycle;Signal;HPM_P1;HPM_P2
2022/07/30 00:01:36;;;;;;;;;;;26.10;51.10;;;;;;5050140;28;19913;-61
2022/07/30 00:04:01;;;;;;;;;;;26.10;51.20;;;;;;5049280;28;20224;-61
2022/07/30 00:06:27;;;;;;;;;;;26.10;50.90;;;;;;5053197;28;19913;-61
2022/07/30 00:08:52;;;;;;;;;;;26.10;51.20;;;;;;5053223;28;20070;-61
2022/07/30 00:11:20;;;;;;;;;;;26.00;51.10;;;;;;5047594;28;19913;-61
2022/07/30 00:13:45;;;;;;;;;;;26.00;51.20;;;;;;5050714;28;19954;-61
2022/07/30 00:16:11;;;;;;;;;;;26.10;51.00;;;;;;5052398;28;19912;-61
2022/07/30 00:18:36;;;;;;;;;;;26.10;51.00;;;;;;5046991;28;19956;-61
2022/07/30 00:21:02;;;;;;;;;;;26.00;51.10;;;;;;5053140;28;20349;-61
2022/07/30 00:23:27;;;;;;;;;;;26.00;51.30;;;;;;5053842;28;20380;-62
2022/07/30 00:25:52;;;;;;;;;;;26.00;51.20;;;;;;5053838;28;19913;-61
2022/07/30 00:28:18;;;;;;;;;;;26.00;51.20;;;;;;5045874;28;20003;-61
2022/07/30 00:30:43;;;;;;;;;;;26.00;51.30;;;;;;5048816;28;19927;-61
2022/07/30 00:33:09;;;;;;;;;;;26.00;51.80;;;;;;5050884;28;19924;-61
2022/07/30 00:35:34;;;;;;;;;;;26.10;51.40;;;;;;5053659;28;20276;-62
2022/07/30 00:38:00;;;;;;;;;;;26.00;51.10;;;;;;5049602;28;19917;-61
2022/07/30 00:40:25;;;;;;;;;;;26.00;51.10;;;;;;5049351;28;19913;-61
2022/07/30 00:42:51;;;;;;;;;;;26.00;51.30;;;;;;5052488;28;20347;-61
2022/07/30 00:45:16;;;;;;;;;;;26.00;51.10;;;;;;5044033;28;20004;-61
2022/07/30 00:47:42;;;;;;;;;;;26.00;51.10;;;;;;5050281;28;19917;-61
2022/07/30 00:50:08;;;;;;;;;;;26.00;51.20;;;;;;5064455;28;20379;-61
2022/07/30 00:52:33;;;;;;;;;;;26.00;51.10;;;;;;5051332;28;20008;-61
2022/07/30 00:54:59;;;;;;;;;;;26.00;51.20;;;;;;5051193;28;19921;-61
2022/07/30 00:57:25;;;;;;;;;;;26.00;51.40;;;;;;5049984;28;19952;-61
2022/07/30 00:59:50;;;;;;;;;;;26.00;51.30;;;;;;5045544;28;20020;-61
2022/07/30 01:02:16;;;;;;;;;;;26.00;51.30;;;;;;5047496;28;19939;-61
2022/07/30 01:04:41;;;;;;;;;;;26.00;51.30;;;;;;5053095;28;19916;-61
2022/07/30 01:07:07;;;;;;;;;;;26.00;52.00;;;;;;5051669;28;19921;-61
2022/07/30 01:09:32;;;;;;;;;;;26.00;52.00;;;;;;5049402;28;19924;-61
2022/07/30 01:11:57;;;;;;;;;;;26.00;51.10;;;;;;5052114;28;20407;-61
2022/07/30 01:14:23;;;;;;;;;;;26.00;51.20;;;;;;5050282;28;20487;-61
2022/07/30 01:16:48;;;;;;;;;;;26.00;51.20;;;;;;5047536;28;20277;-61
2022/07/30 01:22:05;;;;;;;;;;;26.00;51.10;;;;;;5048890;28;20451;-61
2022/07/30 01:24:34;;;;;;;;;;;26.00;51.50;;;;;;5048896;28;19912;-61
2022/07/30 01:27:01;;;;;;;;;;;26.00;51.50;;;;;;5051487;28;19920;-61
2022/07/30 01:29:26;;;;;;;;;;;26.00;51.70;;;;;;5050791;28;19925;-61
2022/07/30 01:31:54;;;;;;;;;;;26.00;51.50;;;;;;5046433;28;20435;-61
2022/07/30 01:34:20;;;;;;;;;;;26.00;51.40;;;;;;5041631;28;19955;-61
2022/07/30 01:36:45;;;;;;;;;;;26.00;51.20;;;;;;5066615;28;19960;-61
2022/07/30 01:39:11;;;;;;;;;;;26.00;51.30;;;;;;5048328;28;19913;-61
2022/07/30 01:41:37;;;;;;;;;;;26.00;51.30;;;;;;5046191;28;19913;-61
2022/07/30 01:44:02;;;;;;;;;;;26.00;51.50;;;;;;5051123;28;19920;-61
2022/07/30 01:46:28;;;;;;;;;;;26.00;51.30;;;;;;5048103;28;19921;-61
2022/07/30 01:48:53;;;;;;;;;;;25.90;51.60;;;;;;5047732;28;20312;-61
2022/07/30 01:51:18;;;;;;;;;;;25.90;51.70;;;;;;5040348;28;20052;-61
2022/07/30 01:53:44;;;;;;;;;;;26.00;51.40;;;;;;5050294;28;19919;-61
2022/07/30 01:56:10;;;;;;;;;;;25.90;51.70;;;;;;5048677;28;19913;-61
2022/07/30 01:58:36;;;;;;;;;;;25.90;51.60;;;;;;5051272;28;19908;-61
2022/07/30 02:01:01;;;;;;;;;;;26.00;51.40;;;;;;5050353;28;19947;-61
2022/07/30 02:03:28;;;;;;;;;;;26.00;51.70;;;;;;5049825;28;19916;-61
2022/07/30 02:06:14;;;;;;;;;;;26.00;51.80;;;;;;5064887;28;19924;-61
2022/07/30 02:08:40;;;;;;;;;;;26.00;51.70;;;;;;5038556;28;19921;-61
2022/07/30 02:11:06;;;;;;;;;;;25.90;51.50;;;;;;5048521;28;19913;-61
2022/07/30 02:13:32;;;;;;;;;;;25.90;51.80;;;;;;5048454;28;19924;-61
2022/07/30 02:16:07;;;;;;;;;;;25.90;52.00;;;;;;5048650;28;19924;-61
2022/07/30 02:18:42;;;;;;;;;;;25.90;51.60;;;;;;5047212;28;19956;-61
2022/07/30 02:21:08;;;;;;;;;;;25.90;51.90;;;;;;5065968;28;19992;-61
2022/07/30 02:23:40;;;;;;;;;;;25.90;51.80;;;;;;5042148;28;19921;-61
2022/07/30 02:26:07;;;;;;;;;;;25.90;51.60;;;;;;5040933;28;19913;-61
2022/07/30 02:28:33;;;;;;;;;;;25.90;52.00;;;;;;5047667;28;19920;-61
2022/07/30 02:31:00;;;;;;;;;;;25.90;51.90;;;;;;5061100;28;19923;-61
2022/07/30 02:33:29;;;;;;;;;;;25.80;52.20;;;;;;5050212;28;19991;-61
2022/07/30 02:35:55;;;;;;;;;;;25.80;51.80;;;;;;5049286;28;19917;-61
2022/07/30 02:38:20;;;;;;;;;;;25.80;52.20;;;;;;5047096;28;19966;-61
2022/07/30 02:40:46;;;;;;;;;;;25.80;51.80;;;;;;5042534;28;19933;-61
2022/07/30 02:43:13;;;;;;;;;;;25.80;51.80;;;;;;5047945;28;19913;-61
2022/07/30 02:45:38;;;;;;;;;;;25.90;51.90;;;;;;5048928;28;19916;-61
2022/07/30 02:48:05;;;;;;;;;;;25.90;52.20;;;;;;5050573;28;19913;-61
2022/07/30 02:50:30;;;;;;;;;;;25.90;52.20;;;;;;5049745;28;19924;-61
2022/07/30 02:52:56;;;;;;;;;;;25.80;52.20;;;;;;5048533;28;19913;-61
2022/07/30 02:55:22;;;;;;;;;;;25.80;52.20;;;;;;5048186;28;19958;-61
2022/07/30 02:57:47;;;;;;;;;;;25.80;52.50;;;;;;5042505;28;19916;-61
2022/07/30 03:00:13;;;;;;;;;;;25.80;52.30;;;;;;5043743;28;19917;-61
2022/07/30 03:02:38;;;;;;;;;;;25.80;52.30;;;;;;5049294;28;20004;-61
2022/07/30 03:05:04;;;;;;;;;;;25.80;52.70;;;;;;5048400;28;19917;-61
2022/07/30 03:07:30;;;;;;;;;;;25.80;52.10;;;;;;5023258;28;20358;-61
2022/07/30 03:09:56;;;;;;;;;;;25.80;52.10;;;;;;5045955;28;19959;-61
2022/07/30 03:12:21;;;;;;;;;;;25.80;52.20;;;;;;5049217;28;19924;-61
2022/07/30 03:14:46;;;;;;;;;;;25.80;52.50;;;;;;5054065;28;19955;-61
2022/07/30 03:17:13;;;;;;;;;;;25.80;52.20;;;;;;5039654;28;20008;-61
2022/07/30 03:19:38;;;;;;;;;;;25.80;52.20;;;;;;5048545;28;19924;-61
2022/07/30 03:22:03;;;;;;;;;;;25.80;52.50;;;;;;5049423;28;19913;-61
2022/07/30 03:24:29;;;;;;;;;;;25.80;52.50;;;;;;5047613;28;19928;-60
2022/07/30 03:26:55;;;;;;;;;;;25.70;51.80;;;;;;5049423;28;20384;-61
2022/07/30 03:29:21;;;;;;;;;;;25.80;52.30;;;;;;5048352;28;19924;-61
2022/07/30 03:31:46;;;;;;;;;;;25.80;52.20;;;;;;5063024;28;19920;-61
2022/07/30 03:34:12;;;;;;;;;;;25.80;52.00;;;;;;5043350;28;19917;-61
2022/07/30 03:36:38;;;;;;;;;;;25.70;52.30;;;;;;5057375;28;19974;-61
2022/07/30 03:39:04;;;;;;;;;;;25.80;52.20;;;;;;5054099;28;19916;-61
2022/07/30 03:41:29;;;;;;;;;;;25.80;51.90;;;;;;5053847;28;19917;-61
2022/07/30 03:43:55;;;;;;;;;;;25.80;52.30;;;;;;5055150;28;19913;-61
2022/07/30 03:46:20;;;;;;;;;;;25.70;52.10;;;;;;5055774;28;19913;-61
2022/07/30 03:48:46;;;;;;;;;;;25.70;52.60;;;;;;5052824;28;19921;-61
2022/07/30 03:51:11;;;;;;;;;;;25.60;52.50;;;;;;5048222;28;19913;-61
2022/07/30 03:53:38;;;;;;;;;;;25.60;52.50;;;;;;5048762;28;19920;-61
2022/07/30 03:56:04;;;;;;;;;;;25.60;52.50;;;;;;5051954;28;19913;-61
2022/07/30 03:58:29;;;;;;;;;;;25.70;52.50;;;;;;5055432;28;19966;-61
2022/07/30 04:00:55;;;;;;;;;;;25.70;52.50;;;;;;5054786;28;19947;-61
2022/07/30 04:03:24;;;;;;;;;;;25.60;52.60;;;;;;5056118;28;19912;-61
2022/07/30 04:05:49;;;;;;;;;;;25.60;52.70;;;;;;5051616;28;19921;-61
2022/07/30 04:08:14;;;;;;;;;;;25.60;52.60;;;;;;5046535;28;19955;-61
2022/07/30 04:10:40;;;;;;;;;;;25.60;52.60;;;;;;5049330;28;19923;-61
2022/07/30 04:13:05;;;;;;;;;;;25.60;52.60;;;;;;5055403;28;19964;-61
2022/07/30 04:15:32;;;;;;;;;;;25.60;52.80;;;;;;5054632;28;19917;-61
2022/07/30 04:17:57;;;;;;;;;;;25.60;52.70;;;;;;5050788;28;20292;-61
2022/07/30 04:20:25;;;;;;;;;;;25.60;52.50;;;;;;5055522;28;19921;-61
2022/07/30 04:22:52;;;;;;;;;;;25.60;52.60;;;;;;5053115;28;21300;-61
2022/07/30 04:25:18;;;;;;;;;;;25.60;52.50;;;;;;5054824;28;19912;-61
2022/07/30 04:27:44;;;;;;;;;;;25.60;52.40;;;;;;5047502;28;19916;-61
2022/07/30 04:30:09;;;;;;;;;;;25.60;52.50;;;;;;5064297;28;20444;-61
2022/07/30 04:32:36;;;;;;;;;;;25.60;52.50;;;;;;5052821;28;19913;-61
2022/07/30 04:35:02;;;;;;;;;;;25.50;52.70;;;;;;5055625;28;19916;-61
2022/07/30 04:37:28;;;;;;;;;;;25.50;52.70;;;;;;5051494;28;19917;-61
2022/07/30 04:39:54;;;;;;;;;;;25.60;52.40;;;;;;5055666;28;19974;-61
2022/07/30 04:42:20;;;;;;;;;;;25.50;52.20;;;;;;5051225;28;19921;-61
2022/07/30 04:44:46;;;;;;;;;;;25.60;52.40;;;;;;5049245;28;19999;-61
2022/07/30 04:47:11;;;;;;;;;;;25.60;52.40;;;;;;5052713;28;19912;-61
2022/07/30 04:49:37;;;;;;;;;;;25.60;52.20;;;;;;5051338;28;19916;-61
2022/07/30 04:52:02;;;;;;;;;;;25.60;52.30;;;;;;5054221;28;20003;-61
2022/07/30 04:54:31;;;;;;;;;;;25.60;52.40;;;;;;5048947;28;19921;-61
2022/07/30 04:56:56;;;;;;;;;;;25.60;52.30;;;;;;5050442;28;19948;-61
2022/07/30 04:59:22;;;;;;;;;;;25.60;52.20;;;;;;5046249;28;19963;-61
2022/07/30 05:01:48;;;;;;;;;;;25.60;52.20;;;;;;5048640;28;19917;-61
2022/07/30 05:04:14;;;;;;;;;;;25.60;52.30;;;;;;5050832;28;19909;-61
2022/07/30 05:06:39;;;;;;;;;;;25.60;52.30;;;;;;5068500;28;19951;-61
2022/07/30 05:09:05;;;;;;;;;;;25.60;52.30;;;;;;5050143;28;19917;-61
2022/07/30 05:11:30;;;;;;;;;;;25.50;52.40;;;;;;5067754;28;19919;-60
2022/07/30 05:13:56;;;;;;;;;;;25.50;52.60;;;;;;5047368;28;19927;-61
2022/07/30 05:16:21;;;;;;;;;;;25.40;52.70;;;;;;5049040;28;19956;-61
2022/07/30 05:18:47;;;;;;;;;;;25.40;52.80;;;;;;5051955;28;20388;-61
2022/07/30 05:21:12;;;;;;;;;;;25.30;52.70;;;;;;5048646;28;19928;-61
2022/07/30 05:23:37;;;;;;;;;;;25.30;52.70;;;;;;5049708;28;19924;-61
2022/07/30 05:26:03;;;;;;;;;;;25.40;52.70;;;;;;5050742;28;19913;-61
2022/07/30 05:28:28;;;;;;;;;;;25.40;52.60;;;;;;5046680;28;20008;-61
2022/07/30 05:30:54;;;;;;;;;;;25.40;52.60;;;;;;5047056;28;19960;-60
2022/07/30 05:33:20;;;;;;;;;;;25.40;52.60;;;;;;5046714;28;20026;-61
2022/07/30 05:35:45;;;;;;;;;;;25.50;52.50;;;;;;5046927;28;19956;-62
2022/07/30 05:38:10;;;;;;;;;;;25.50;52.50;;;;;;5046549;28;19967;-61
2022/07/30 05:40:36;;;;;;;;;;;25.40;52.50;;;;;;5050934;28;19912;-61
2022/07/30 05:43:01;;;;;;;;;;;25.30;52.60;;;;;;5050205;28;20011;-61
2022/07/30 05:45:27;;;;;;;;;;;25.40;52.60;;;;;;5050434;28;20234;-60
2022/07/30 05:47:52;;;;;;;;;;;25.30;52.60;;;;;;5038449;28;20344;-60
2022/07/30 05:50:18;;;;;;;;;;;25.40;52.50;;;;;;5048022;28;20007;-61
2022/07/30 05:52:43;;;;;;;;;;;25.40;52.50;;;;;;5050218;28;19924;-61
2022/07/30 05:55:09;;;;;;;;;;;25.40;52.50;;;;;;5050389;28;20566;-61
2022/07/30 05:57:35;;;;;;;;;;;25.30;52.50;;;;;;5052224;28;20285;-61
2022/07/30 06:00:01;;;;;;;;;;;25.40;52.50;;;;;;5049882;28;19999;-61
2022/07/30 06:02:27;;;;;;;;;;;25.40;52.50;;;;;;5047230;28;19916;-61
2022/07/30 06:04:52;;;;;;;;;;;25.30;52.50;;;;;;5043045;28;19921;-60
2022/07/30 06:07:18;;;;;;;;;;;25.30;52.50;;;;;;5050793;28;19917;-61
2022/07/30 06:09:43;;;;;;;;;;;25.40;52.40;;;;;;5048574;28;19923;-61
2022/07/30 06:12:09;;;;;;;;;;;25.40;52.20;;;;;;5051093;28;19917;-61
2022/07/30 06:14:34;;;;;;;;;;;25.40;52.40;;;;;;5050846;28;19913;-61
2022/07/30 06:16:59;;;;;;;;;;;25.30;52.40;;;;;;5051014;28;20281;-61
2022/07/30 06:19:25;;;;;;;;;;;25.30;52.50;;;;;;5046001;28;19970;-61
2022/07/30 06:21:50;;;;;;;;;;;25.40;52.30;;;;;;5045964;28;20372;-61
2022/07/30 06:24:16;;;;;;;;;;;25.40;52.20;;;;;;5049816;28;19913;-60
2022/07/30 06:26:41;;;;;;;;;;;25.40;52.20;;;;;;5050080;28;19919;-61
2022/07/30 06:29:07;;;;;;;;;;;25.30;52.50;;;;;;5050658;28;19920;-61
2022/07/30 06:31:33;;;;;;;;;;;25.30;52.30;;;;;;5050419;28;19927;-61
2022/07/30 06:33:58;;;;;;;;;;;25.30;52.40;;;;;;5051067;28;19923;-61
2022/07/30 06:36:24;;;;;;;;;;;25.30;52.50;;;;;;5044980;28;19916;-61
2022/07/30 06:38:49;;;;;;;;;;;25.20;52.50;;;;;;5046911;28;19960;-60
2022/07/30 06:41:14;;;;;;;;;;;25.20;52.70;;;;;;5049510;28;19919;-61
2022/07/30 06:43:40;;;;;;;;;;;25.30;52.50;;;;;;5048412;28;19916;-61
2022/07/30 06:46:05;;;;;;;;;;;25.30;52.50;;;;;;5048965;28;19921;-61
2022/07/30 06:48:31;;;;;;;;;;;25.20;52.60;;;;;;5047067;28;19912;-61
2022/07/30 06:50:56;;;;;;;;;;;25.30;52.50;;;;;;5045225;28;20368;-61
2022/07/30 06:53:22;;;;;;;;;;;25.30;52.50;;;;;;5042072;28;19912;-61
2022/07/30 06:55:49;;;;;;;;;;;25.30;52.50;;;;;;5047192;28;19916;-61
2022/07/30 06:58:14;;;;;;;;;;;25.30;52.40;;;;;;5049793;28;19913;-61
2022/07/30 07:00:41;;;;;;;;;;;25.20;52.50;;;;;;5047887;28;19917;-61
2022/07/30 07:03:07;;;;;;;;;;;25.20;52.50;;;;;;5045746;28;20284;-61
2022/07/30 07:05:32;;;;;;;;;;;25.20;52.50;;;;;;5048264;28;19922;-61
2022/07/30 07:07:58;;;;;;;;;;;25.20;52.50;;;;;;5045295;28;19917;-61
2022/07/30 07:10:23;;;;;;;;;;;25.20;52.30;;;;;;5047972;28;20298;-61
2022/07/30 07:12:49;;;;;;;;;;;25.30;52.40;;;;;;5049707;28;19921;-61
2022/07/30 07:15:14;;;;;;;;;;;25.30;52.10;;;;;;5050624;28;19920;-61
2022/07/30 07:17:40;;;;;;;;;;;25.40;52.10;;;;;;5050690;28;19913;-61
2022/07/30 07:20:06;;;;;;;;;;;25.40;52.00;;;;;;5047326;28;19920;-61
2022/07/30 07:22:31;;;;;;;;;;;25.50;51.90;;;;;;5048622;28;19917;-61
2022/07/30 07:24:57;;;;;;;;;;;25.40;51.80;;;;;;5042582;28;20008;-61
2022/07/30 07:27:22;;;;;;;;;;;25.40;51.80;;;;;;5046637;28;19920;-61
2022/07/30 07:29:48;;;;;;;;;;;25.40;52.00;;;;;;5048237;28;19920;-61
2022/07/30 07:32:13;;;;;;;;;;;25.40;52.10;;;;;;5046600;28;19967;-61
2022/07/30 07:34:39;;;;;;;;;;;25.40;52.00;;;;;;5047826;28;19924;-61
2022/07/30 07:37:04;;;;;;;;;;;25.40;51.90;;;;;;5049161;28;20064;-61
2022/07/30 07:39:30;;;;;;;;;;;25.40;52.00;;;;;;5043763;28;19913;-61
2022/07/30 07:41:55;;;;;;;;;;;25.30;52.10;;;;;;5042116;28;19913;-61
2022/07/30 07:44:20;;;;;;;;;;;25.30;52.20;;;;;;5049388;28;19913;-61
2022/07/30 07:46:47;;;;;;;;;;;25.30;52.10;;;;;;5051279;28;20284;-60
2022/07/30 07:49:12;;;;;;;;;;;25.30;52.40;;;;;;5051474;28;20011;-61
2022/07/30 07:51:37;;;;;;;;;;;25.30;52.50;;;;;;5046965;28;20443;-60
2022/07/30 07:54:03;;;;;;;;;;;25.30;52.40;;;;;;5041014;28;20294;-61
2022/07/30 07:56:28;;;;;;;;;;;25.30;52.40;;;;;;5050944;28;19920;-61
2022/07/30 07:58:54;;;;;;;;;;;25.30;52.40;;;;;;5049918;28;20300;-61
2022/07/30 08:01:20;;;;;;;;;;;25.30;52.40;;;;;;5049139;28;20001;-61
2022/07/30 08:03:45;;;;;;;;;;;25.30;52.20;;;;;;5046175;28;20003;-62
2022/07/30 08:06:11;;;;;;;;;;;25.40;52.20;;;;;;5044566;28;19984;-61
2022/07/30 08:08:37;;;;;;;;;;;25.40;52.20;;;;;;5045952;28;19960;-61
2022/07/30 08:11:02;;;;;;;;;;;25.40;52.10;;;;;;5049444;28;19917;-61
2022/07/30 08:13:28;;;;;;;;;;;25.40;52.20;;;;;;5048618;28;19931;-61
2022/07/30 08:15:53;;;;;;;;;;;25.40;52.20;;;;;;5050340;28;20356;-61
2022/07/30 08:18:19;;;;;;;;;;;25.30;52.30;;;;;;5047749;28;19924;-61
2022/07/30 08:20:44;;;;;;;;;;;25.30;52.40;;;;;;5043739;28;19919;-61
2022/07/30 08:23:10;;;;;;;;;;;25.30;52.40;;;;;;5048046;28;19919;-61
2022/07/30 08:25:35;;;;;;;;;;;25.30;52.40;;;;;;5054315;28;19912;-60
2022/07/30 08:28:02;;;;;;;;;;;25.30;52.30;;;;;;5050869;28;19941;-61
2022/07/30 08:30:27;;;;;;;;;;;25.30;52.30;;;;;;5053475;28;19917;-61
2022/07/30 08:32:53;;;;;;;;;;;25.30;52.20;;;;;;5053372;28;19928;-61
2022/07/30 08:35:18;;;;;;;;;;;25.40;52.10;;;;;;5050206;28;19923;-62
2022/07/30 08:37:44;;;;;;;;;;;25.40;52.00;;;;;;5051281;28;19962;-61
2022/07/30 08:40:09;;;;;;;;;;;25.30;52.10;;;;;;5045899;28;19920;-61
2022/07/30 08:42:35;;;;;;;;;;;25.30;52.20;;;;;;5043774;28;19943;-60
2022/07/30 08:45:00;;;;;;;;;;;25.20;52.30;;;;;;5044171;28;19920;-61
2022/07/30 08:47:30;;;;;;;;;;;25.20;52.30;;;;;;5044926;28;20356;-61
2022/07/30 08:50:00;;;;;;;;;;;25.20;52.40;;;;;;5044522;28;19921;-61
2022/07/30 08:52:26;;;;;;;;;;;25.30;52.20;;;;;;5044244;28;19956;-61
2022/07/30 08:54:51;;;;;;;;;;;25.30;52.00;;;;;;5044697;28;19924;-61
2022/07/30 08:57:17;;;;;;;;;;;25.30;52.10;;;;;;5045085;28;19935;-61
2022/07/30 08:59:42;;;;;;;;;;;25.30;52.10;;;;;;5047044;28;19993;-61
2022/07/30 09:02:08;;;;;;;;;;;25.30;51.90;;;;;;5045871;28;19967;-61
2022/07/30 09:04:33;;;;;;;;;;;25.40;51.70;;;;;;5045931;28;20584;-61
2022/07/30 09:06:59;;;;;;;;;;;25.40;51.60;;;;;;5047646;28;19913;-61
2022/07/30 09:09:25;;;;;;;;;;;25.50;51.60;;;;;;5042116;28;19917;-61
2022/07/30 09:11:50;;;;;;;;;;;25.50;51.50;;;;;;5045731;28;19917;-61
2022/07/30 09:14:16;;;;;;;;;;;25.50;51.40;;;;;;5045140;28;20388;-61
2022/07/30 09:16:41;;;;;;;;;;;25.50;51.30;;;;;;5044772;28;20612;-61
2022/07/30 09:19:14;;;;;;;;;;;25.60;51.60;;;;;;5047495;28;19995;-61
2022/07/30 09:21:40;;;;;;;;;;;25.60;51.40;;;;;;5046767;28;20004;-61
2022/07/30 09:24:09;;;;;;;;;;;25.60;51.30;;;;;;5043266;28;20003;-61
2022/07/30 09:26:51;;;;;;;;;;;25.60;51.20;;;;;;5046173;28;20266;-61
2022/07/30 09:29:18;;;;;;;;;;;25.60;51.60;;;;;;5046664;28;19917;-61
2022/07/30 09:31:56;;;;;;;;;;;25.60;51.80;;;;;;5046438;28;20323;-61
2022/07/30 09:34:22;;;;;;;;;;;25.50;51.80;;;;;;5045685;28;19913;-61
2022/07/30 09:36:47;;;;;;;;;;;25.50;51.90;;;;;;5043871;28;19958;-61
2022/07/30 09:39:13;;;;;;;;;;;25.50;52.10;;;;;;5045487;28;19921;-61
2022/07/30 09:41:40;;;;;;;;;;;25.50;52.00;;;;;;5045533;28;19913;-61
2022/07/30 09:44:05;;;;;;;;;;;25.60;51.90;;;;;;5044173;28;19913;-61
2022/07/30 09:47:01;;;;;;;;;;;25.60;51.80;;;;;;5059856;28;19913;-61
2022/07/30 09:49:27;;;;;;;;;;;25.60;52.00;;;;;;5038406;28;19962;-61
2022/07/30 09:51:53;;;;;;;;;;;25.60;52.10;;;;;;5042236;28;19917;-60
2022/07/30 09:54:18;;;;;;;;;;;25.60;52.10;;;;;;5043254;28;20012;-61
2022/07/30 09:56:45;;;;;;;;;;;25.60;51.90;;;;;;5043130;28;19913;-61
2022/07/30 09:59:29;;;;;;;;;;;25.70;52.10;;;;;;5046873;28;19917;-61
2022/07/30 10:01:55;;;;;;;;;;;25.70;52.20;;;;;;5042832;28;19917;-61
2022/07/30 10:04:24;;;;;;;;;;;25.70;52.20;;;;;;5045705;28;19959;-61
2022/07/30 10:06:49;;;;;;;;;;;25.70;52.40;;;;;;5045965;28;19921;-61
2022/07/30 10:09:28;;;;;;;;;;;25.60;52.40;;;;;;5041574;28;19966;-61
2022/07/30 10:11:54;;;;;;;;;;;25.60;52.40;;;;;;5046143;28;19920;-61
2022/07/30 10:14:20;;;;;;;;;;;25.60;52.80;;;;;;5045076;28;19920;-61
2022/07/30 10:16:45;;;;;;;;;;;25.60;52.90;;;;;;5045678;28;19991;-62
2022/07/30 10:19:11;;;;;;;;;;;25.80;52.90;;;;;;5044954;28;19913;-61
2022/07/30 10:21:36;;;;;;;;;;;25.70;52.80;;;;;;5041694;28;19975;-61
2022/07/30 10:24:02;;;;;;;;;;;25.80;52.80;;;;;;5041091;28;19974;-61
2022/07/30 10:26:28;;;;;;;;;;;25.80;52.70;;;;;;5036622;28;19921;-61
2022/07/30 10:28:54;;;;;;;;;;;25.90;52.70;;;;;;5025239;28;19927;-61
2022/07/30 10:31:19;;;;;;;;;;;25.90;52.50;;;;;;5044279;28;19920;-61
2022/07/30 10:33:44;;;;;;;;;;;26.00;52.50;;;;;;5038853;28;19912;-61
2022/07/30 10:36:10;;;;;;;;;;;25.90;52.60;;;;;;5045894;28;19913;-61
2022/07/30 10:38:37;;;;;;;;;;;25.90;52.70;;;;;;5042547;28;19913;-61
2022/07/30 10:41:04;;;;;;;;;;;25.90;52.70;;;;;;5044009;28;20369;-61
2022/07/30 10:43:37;;;;;;;;;;;25.90;52.40;;;;;;5044922;28;19921;-61
2022/07/30 10:46:25;;;;;;;;;;;26.00;52.30;;;;;;5061927;28;20427;-61
2022/07/30 10:48:51;;;;;;;;;;;26.00;52.30;;;;;;5044533;28;19921;-61
2022/07/30 10:51:16;;;;;;;;;;;26.00;52.30;;;;;;5044228;28;20395;-61
2022/07/30 10:53:46;;;;;;;;;;;25.90;52.30;;;;;;5043651;28;20349;-61
2022/07/30 10:56:12;;;;;;;;;;;26.00;52.30;;;;;;5043709;28;19948;-62
2022/07/30 10:58:57;;;;;;;;;;;26.10;52.20;;;;;;5043469;28;20083;-61
2022/07/30 11:01:22;;;;;;;;;;;26.00;52.30;;;;;;5045342;28;19913;-61
2022/07/30 11:04:11;;;;;;;;;;;26.00;52.40;;;;;;5042275;28;20335;-61
2022/07/30 11:06:36;;;;;;;;;;;26.00;52.30;;;;;;5041575;28;19916;-61
2022/07/30 11:09:02;;;;;;;;;;;26.10;52.30;;;;;;5041828;28;20365;-61
2022/07/30 11:11:30;;;;;;;;;;;26.00;52.00;;;;;;5040051;28;19922;-61
2022/07/30 11:13:59;;;;;;;;;;;26.00;52.20;;;;;;5041407;28;19925;-61
2022/07/30 11:16:33;;;;;;;;;;;26.00;52.20;;;;;;5043687;28;20007;-62
2022/07/30 11:19:10;;;;;;;;;;;26.00;52.40;;;;;;5042765;28;19996;-61
2022/07/30 11:21:36;;;;;;;;;;;26.00;52.60;;;;;;5038673;28;19924;-61
2022/07/30 11:24:02;;;;;;;;;;;26.00;52.60;;;;;;5040012;28;19913;-61
2022/07/30 11:26:37;;;;;;;;;;;26.00;52.50;;;;;;5036078;28;20380;-62
2022/07/30 11:29:03;;;;;;;;;;;26.00;52.20;;;;;;5041247;28;19916;-61
2022/07/30 11:31:28;;;;;;;;;;;26.00;52.00;;;;;;5036762;28;19924;-61
2022/07/30 11:34:14;;;;;;;;;;;26.00;52.00;;;;;;5045584;28;19917;-62
2022/07/30 11:36:59;;;;;;;;;;;26.00;52.00;;;;;;5028847;28;19975;-62
2022/07/30 11:39:44;;;;;;;;;;;26.10;52.00;;;;;;5042025;28;19913;-61
2022/07/30 11:42:22;;;;;;;;;;;26.10;52.00;;;;;;5043680;28;20361;-62
2022/07/30 11:44:48;;;;;;;;;;;26.00;52.20;;;;;;5044851;28;19912;-61
2022/07/30 11:47:13;;;;;;;;;;;26.00;52.30;;;;;;5043336;28;20012;-61
2022/07/30 11:49:39;;;;;;;;;;;26.00;52.20;;;;;;5041761;28;19967;-61
2022/07/30 11:52:04;;;;;;;;;;;26.00;52.10;;;;;;5039927;28;19920;-62
2022/07/30 11:54:29;;;;;;;;;;;26.00;51.90;;;;;;5039215;28;19913;-62
2022/07/30 11:56:58;;;;;;;;;;;26.10;52.00;;;;;;5047868;28;20422;-61
2022/07/30 11:59:23;;;;;;;;;;;26.10;52.00;;;;;;5044210;28;19916;-61
2022/07/30 12:01:52;;;;;;;;;;;26.10;51.90;;;;;;5045509;28;19920;-62
2022/07/30 12:04:17;;;;;;;;;;;26.20;51.70;;;;;;5039172;28;20318;-62
2022/07/30 12:06:43;;;;;;;;;;;26.20;51.80;;;;;;5043977;28;20003;-61
2022/07/30 12:09:09;;;;;;;;;;;26.20;51.70;;;;;;5045467;28;19924;-61
2022/07/30 12:11:35;;;;;;;;;;;26.20;51.80;;;;;;5044975;28;20384;-61
2022/07/30 12:14:01;;;;;;;;;;;26.20;51.70;;;;;;5039435;28;19932;-61
2022/07/30 12:16:27;;;;;;;;;;;26.20;51.60;;;;;;5047161;28;19913;-61
2022/07/30 12:18:52;;;;;;;;;;;26.30;51.70;;;;;;5041430;28;19953;-61
2022/07/30 12:21:18;;;;;;;;;;;26.20;51.50;;;;;;5042503;28;20292;-61
2022/07/30 12:23:53;;;;;;;;;;;26.30;51.70;;;;;;5045481;28;19921;-61
2022/07/30 12:26:20;;;;;;;;;;;26.30;51.20;;;;;;5041087;28;19913;-61
2022/07/30 12:28:45;;;;;;;;;;;26.30;51.10;;;;;;5045427;28;19940;-61
2022/07/30 12:31:13;;;;;;;;;;;26.40;51.30;;;;;;5043142;28;19913;-61
2022/07/30 12:33:38;;;;;;;;;;;26.40;51.20;;;;;;5042603;28;19917;-61
2022/07/30 12:36:04;;;;;;;;;;;26.40;51.00;;;;;;5039616;28;19927;-61
2022/07/30 12:38:29;;;;;;;;;;;26.40;51.20;;;;;;5040194;28;19968;-61
2022/07/30 12:40:58;;;;;;;;;;;26.40;50.90;;;;;;5045394;28;20414;-61
2022/07/30 12:43:46;;;;;;;;;;;26.40;51.10;;;;;;5046637;28;20007;-61
2022/07/30 12:46:15;;;;;;;;;;;26.50;51.00;;;;;;5038026;28;19920;-61
2022/07/30 12:49:07;;;;;;;;;;;26.50;50.70;;;;;;5045824;28;20296;-61
2022/07/30 12:51:39;;;;;;;;;;;26.50;50.70;;;;;;5042690;28;19924;-61
2022/07/30 12:54:17;;;;;;;;;;;26.40;50.90;;;;;;5043375;28;19929;-61
2022/07/30 12:56:59;;;;;;;;;;;26.40;50.80;;;;;;5044577;28;19916;-62
2022/07/30 12:59:25;;;;;;;;;;;26.40;50.80;;;;;;5047923;28;19913;-61
2022/07/30 13:01:51;;;;;;;;;;;26.40;50.80;;;;;;5045026;28;19913;-61
2022/07/30 13:04:16;;;;;;;;;;;26.40;50.90;;;;;;5045783;28;19912;-61
2022/07/30 13:06:42;;;;;;;;;;;26.40;51.00;;;;;;5046087;28;19927;-61
2022/07/30 13:09:19;;;;;;;;;;;26.40;50.60;;;;;;5043815;28;19925;-61
2022/07/30 13:11:45;;;;;;;;;;;26.50;50.70;;;;;;5043837;28;19920;-61
2022/07/30 13:14:11;;;;;;;;;;;26.60;50.70;;;;;;5044864;28;19916;-61
2022/07/30 13:16:37;;;;;;;;;;;26.60;51.20;;;;;;5047621;28;19988;-61
2022/07/30 13:19:03;;;;;;;;;;;26.60;50.40;;;;;;5045041;28;19955;-61
2022/07/30 13:21:28;;;;;;;;;;;26.60;50.40;;;;;;5044190;28;19917;-62
2022/07/30 13:23:54;;;;;;;;;;;26.60;50.60;;;;;;5044985;28;19923;-61
2022/07/30 13:26:19;;;;;;;;;;;26.60;50.70;;;;;;5041282;28;19976;-61
2022/07/30 13:28:45;;;;;;;;;;;26.60;50.70;;;;;;5043823;28;20372;-61
2022/07/30 13:31:10;;;;;;;;;;;26.60;50.80;;;;;;5042491;28;19960;-61
2022/07/30 13:33:36;;;;;;;;;;;26.60;50.60;;;;;;5045958;28;19984;-61
2022/07/30 13:36:02;;;;;;;;;;;26.60;50.60;;;;;;5042801;28;19913;-61
2022/07/30 13:38:27;;;;;;;;;;;26.60;50.20;;;;;;5045821;28;19921;-62
2022/07/30 13:40:53;;;;;;;;;;;26.70;50.20;;;;;;5045189;28;19971;-61
2022/07/30 13:43:18;;;;;;;;;;;26.70;50.50;;;;;;5045557;28;19955;-61
2022/07/30 13:45:44;;;;;;;;;;;26.70;50.40;;;;;;5042554;28;20437;-61
2022/07/30 13:48:09;;;;;;;;;;;26.80;50.30;;;;;;5042667;28;19920;-61
2022/07/30 13:50:35;;;;;;;;;;;26.70;50.30;;;;;;5045437;28;19931;-62
2022/07/30 13:53:00;;;;;;;;;;;26.80;50.30;;;;;;5045269;28;19917;-62
2022/07/30 13:55:26;;;;;;;;;;;26.80;49.90;;;;;;5044985;28;19960;-61
2022/07/30 13:57:51;;;;;;;;;;;26.80;49.70;;;;;;5041901;28;19913;-61
2022/07/30 14:00:17;;;;;;;;;;;26.80;50.00;;;;;;5037931;28;19919;-62
2022/07/30 14:02:42;;;;;;;;;;;26.80;50.10;;;;;;5045258;28;19917;-61
2022/07/30 14:05:08;;;;;;;;;;;26.90;50.30;;;;;;5038413;28;20000;-62
2022/07/30 14:07:33;;;;;;;;;;;26.90;50.10;;;;;;5040451;28;19921;-61
2022/07/30 14:09:59;;;;;;;;;;;27.00;50.00;;;;;;5044698;28;19920;-61
2022/07/30 14:12:24;;;;;;;;;;;27.00;50.10;;;;;;5043530;28;19921;-62
2022/07/30 14:14:50;;;;;;;;;;;27.00;50.30;;;;;;5044911;28;19913;-62
2022/07/30 14:17:15;;;;;;;;;;;27.00;50.20;;;;;;5043174;28;19919;-61